Time;durP1;ratioP1;P1;durP2;ratioP2;P2;SDS_P1;SDS_P2;PMS_P1;PMS_P2;Temp;Humidity;BMP_temperature;BMP_pressure;BME280_temperature;BME280_humidity;BME280_pressure;Samples;Min_cycle;Max_cycle;Signal;HPM_P1;HPM_P2
2021/04/19 12:59:10;;;;;;;18.48;11.45;;;;;;;;;;5126380;27;20330;-77
2021/04/19 13:01:36;;;;;;;20.52;11.77;;;;;;;;;;5080154;28;20077;-75
2021/04/19 13:04:02;;;;;;;15.95;10.93;;;;;;;;;;5107048;28;20028;-76
2021/04/19 13:06:28;;;;;;;14.93;11.43;;;;;;;;;;5105343;28;20036;-76
2021/04/19 13:08:55;;;;;;;17.08;11.10;;;;;;;;;;5104763;28;20023;-76
2021/04/19 13:11:22;;;;;;;18.05;11.77;;;;;;;;;;5105686;28;20112;-76
2021/04/19 13:13:48;;;;;;;17.55;11.55;;;;;;;;;;5093783;28;20023;-76
2021/04/19 13:16:14;;;;;;;18.30;12.40;;;;;;;;;;5094294;28;20115;-76
2021/04/19 13:18:39;;;;;;;19.80;11.98;;;13.70;99.90;;;;;;5101019;28;20016;-76
2021/04/19 13:21:05;;;;;;;14.60;10.68;;;17.70;99.90;;;;;;5102675;28;20365;-76
2021/04/19 13:23:32;;;;;;;17.20;11.38;;;17.70;99.90;;;;;;5104081;28;20392;-77
2021/04/19 13:25:58;;;;;;;16.77;11.85;;;18.30;99.90;;;;;;5105828;28;20012;-78
2021/04/19 13:28:24;;;;;;;18.42;11.70;;;18.40;98.70;;;;;;5108264;28;20069;-76
2021/04/19 13:30:50;;;;;;;16.05;12.63;;;18.30;97.50;;;;;;5102709;28;20023;-76
2021/04/19 13:33:16;;;;;;;17.58;13.15;;;18.80;97.60;;;;;;5094472;28;20033;-76
2021/04/19 13:35:41;;;;;;;15.25;12.18;;;19.10;95.30;;;;;;5103109;28;20377;-77
2021/04/19 13:38:07;;;;;;;17.55;13.10;;;17.80;95.60;;;;;;5103517;28;20031;-77
2021/04/19 13:40:33;;;;;;;19.02;11.73;;;16.90;98.00;;;;;;5101362;28;20024;-76
2021/04/19 13:42:59;;;;;;;17.92;12.63;;;16.60;99.90;;;;;;5106296;28;20059;-77
2021/04/19 13:45:26;;;;;;;16.67;12.52;;;16.50;99.90;;;;;;5103209;28;20093;-76
2021/04/19 13:47:51;;;;;;;16.50;12.15;;;16.10;99.90;;;;;;5102852;28;20028;-77
2021/04/19 13:50:20;;;;;;;16.73;11.77;;;15.80;99.90;;;;;;5103313;28;20039;-76
2021/04/19 13:52:46;;;;;;;16.30;11.02;;;16.00;99.90;;;;;;5102433;28;20484;-77
2021/04/19 13:55:13;;;;;;;22.10;13.48;;;15.30;99.90;;;;;;5104173;28;20103;-75
2021/04/19 13:57:39;;;;;;;15.55;11.63;;;15.40;99.90;;;;;;5102233;28;20023;-75
2021/04/19 14:00:09;;;;;;;14.88;11.63;;;15.60;99.90;;;;;;5103340;27;20027;-76
2021/04/19 14:02:35;;;;;;;19.27;12.02;;;15.90;99.90;;;;;;5103858;28;20024;-76
2021/04/19 14:05:01;;;;;;;15.82;11.93;;;15.80;99.90;;;;;;5100526;28;20040;-77
2021/04/19 14:07:28;;;;;;;15.50;11.32;;;15.60;99.90;;;;;;5100538;28;20050;-77
2021/04/19 14:09:55;;;;;;;15.77;11.18;;;15.50;99.90;;;;;;5092871;28;20117;-77
2021/04/19 14:12:21;;;;;;;15.00;11.40;;;15.60;99.90;;;;;;5087956;28;20515;-76
2021/04/19 14:14:47;;;;;;;13.40;10.40;;;15.50;99.90;;;;;;5086014;28;20029;-76
2021/04/19 14:17:12;;;;;;;15.77;10.98;;;15.30;99.90;;;;;;5080856;28;20114;-76
2021/04/19 14:19:39;;;;;;;14.73;11.15;;;15.20;99.90;;;;;;5078867;28;20020;-75
2021/04/19 14:22:05;;;;;;;18.80;10.80;;;15.00;99.90;;;;;;5079850;28;20366;-76
2021/04/19 14:24:35;;;;;;;15.55;11.32;;;15.10;99.90;;;;;;5079791;28;20548;-77
2021/04/19 14:27:02;;;;;;;14.02;10.50;;;15.30;99.90;;;;;;5079989;28;20052;-77
2021/04/19 14:29:29;;;;;;;14.63;10.02;;;15.40;99.90;;;;;;5081860;28;20095;-77
2021/04/19 14:31:57;;;;;;;16.25;10.98;;;16.70;99.90;;;;;;5083305;28;20032;-76
2021/04/19 14:34:23;;;;;;;14.68;10.32;;;15.70;99.90;;;;;;5082357;28;20015;-76
2021/04/19 14:36:48;;;;;;;14.93;10.07;;;15.30;99.90;;;;;;5075704;28;20107;-78
2021/04/19 14:39:14;;;;;;;14.65;10.70;;;15.70;99.90;;;;;;5084965;28;20027;-77
2021/04/19 14:41:40;;;;;;;18.05;11.35;;;14.40;99.90;;;;;;5088503;28;20024;-77
2021/04/19 14:44:05;;;;;;;13.95;10.23;;;14.20;99.90;;;;;;5088598;28;20102;-77
2021/04/19 14:46:31;;;;;;;14.52;9.88;;;14.10;99.90;;;;;;5091370;28;20850;-77
2021/04/19 14:48:57;;;;;;;13.68;10.05;;;14.10;99.90;;;;;;5092654;28;20024;-77
2021/04/19 14:51:24;;;;;;;17.33;11.73;;;14.10;99.90;;;;;;5092363;28;20028;-77
2021/04/19 14:53:49;;;;;;;17.52;11.05;;;14.00;99.90;;;;;;5091703;28;20032;-77
2021/04/19 14:56:15;;;;;;;15.63;10.27;;;14.00;99.90;;;;;;5092311;28;20145;-77
2021/04/19 14:58:41;;;;;;;15.40;10.57;;;14.20;99.90;;;;;;5102889;28;20502;-77
2021/04/19 15:01:07;;;;;;;16.00;10.27;;;13.90;99.90;;;;;;5111867;28;20031;-77
2021/04/19 15:03:33;;;;;;;15.10;10.52;;;14.10;99.90;;;;;;5102681;22;20044;-74
2021/04/19 15:05:58;;;;;;;13.90;10.13;;;14.40;99.90;;;;;;5050967;28;20054;-74
2021/04/19 15:08:24;;;;;;;15.10;10.40;;;14.70;99.90;;;;;;5053140;28;20172;-74
2021/04/19 15:10:50;;;;;;;14.77;10.60;;;13.80;99.90;;;;;;5052276;28;20539;-74
2021/04/19 15:13:16;;;;;;;15.07;11.38;;;14.10;99.90;;;;;;5034561;28;20596;-74
2021/04/19 15:15:42;;;;;;;17.27;10.80;;;14.00;99.90;;;;;;5024821;28;20029;-76
2021/04/19 15:18:08;;;;;;;16.65;10.68;;;14.20;99.90;;;;;;5034195;28;20029;-75
2021/04/19 15:20:34;;;;;;;17.70;9.88;;;14.30;99.90;;;;;;5030848;28;20093;-76
2021/04/19 15:23:01;;;;;;;14.80;9.75;;;14.40;99.90;;;;;;5029506;28;20547;-75
2021/04/19 15:25:29;;;;;;;16.70;10.52;;;14.80;99.90;;;;;;5029802;28;20121;-75
2021/04/19 15:27:55;;;;;;;15.07;9.85;;;15.30;99.90;;;;;;5026821;28;20057;-73
2021/04/19 15:30:21;;;;;;;13.75;10.43;;;16.40;99.90;;;;;;5028570;28;20107;-73
2021/04/19 15:32:48;;;;;;;15.00;10.80;;;17.20;99.90;;;;;;5027802;28;20136;-76
2021/04/19 15:35:17;;;;;;;14.32;9.57;;;17.90;99.30;;;;;;5026117;28;20033;-74
2021/04/19 15:37:44;;;;;;;13.02;9.50;;;19.20;96.70;;;;;;5027491;28;20439;-74
2021/04/19 15:40:10;;;;;;;14.30;9.88;;;19.00;94.00;;;;;;5028066;28;20026;-75
2021/04/19 15:42:37;;;;;;;12.93;9.95;;;19.40;92.70;;;;;;5027658;28;20052;-74
2021/04/19 15:45:07;;;;;;;13.13;9.73;;;19.20;92.90;;;;;;5028618;28;20021;-74
2021/04/19 15:47:34;;;;;;;15.18;9.85;;;18.90;92.40;;;;;;5028075;28;20029;-74
2021/04/19 15:49:59;;;;;;;13.32;9.02;;;19.40;92.20;;;;;;5025137;28;20410;-74
2021/04/19 15:52:25;;;;;;;10.38;8.18;;;20.30;90.20;;;;;;5026570;28;20032;-75
2021/04/19 15:54:51;;;;;;;12.88;9.52;;;20.80;88.00;;;;;;5027479;28;20022;-74
2021/04/19 15:57:17;;;;;;;13.52;9.38;;;20.70;86.40;;;;;;5027109;28;20379;-74
2021/04/19 15:59:42;;;;;;;13.73;9.65;;;19.50;87.00;;;;;;5027350;28;20433;-74
2021/04/19 16:02:08;;;;;;;13.48;10.13;;;18.20;91.70;;;;;;5027366;28;20083;-74
2021/04/19 16:04:34;;;;;;;14.38;10.48;;;17.00;93.70;;;;;;5027082;28;20432;-74
2021/04/19 16:07:00;;;;;;;14.45;10.18;;;16.60;96.20;;;;;;5027492;28;20383;-74
2021/04/19 16:09:26;;;;;;;12.00;9.27;;;16.40;96.60;;;;;;5026566;28;20079;-74
2021/04/19 16:11:52;;;;;;;13.70;9.45;;;16.20;97.50;;;;;;5026699;28;20034;-74
2021/04/19 16:14:19;;;;;;;16.80;10.18;;;16.20;98.20;;;;;;5023666;28;20025;-74
2021/04/19 16:16:45;;;;;;;14.00;8.63;;;16.20;98.50;;;;;;5024475;28;20014;-74
2021/04/19 16:19:11;;;;;;;12.60;9.82;;;16.50;97.70;;;;;;5027076;28;20021;-74
2021/04/19 16:21:37;;;;;;;19.25;13.60;;;17.10;97.80;;;;;;5025862;28;20440;-74
2021/04/19 16:24:03;;;;;;;14.48;10.40;;;16.50;98.30;;;;;;5027209;28;20117;-74
2021/04/19 16:26:29;;;;;;;13.40;9.40;;;16.60;98.30;;;;;;5027303;28;20359;-74
2021/04/19 16:28:55;;;;;;;17.40;10.80;;;16.50;98.60;;;;;;5026175;28;20049;-75
2021/04/19 16:31:21;;;;;;;14.27;10.75;;;16.40;98.80;;;;;;5024926;28;20056;-75
2021/04/19 16:33:47;;;;;;;23.52;15.27;;;16.00;99.30;;;;;;5026576;28;20086;-76
2021/04/19 16:36:13;;;;;;;15.88;11.30;;;15.30;99.90;;;;;;5027009;28;20079;-75
2021/04/19 16:38:40;;;;;;;13.18;9.82;;;15.10;99.90;;;;;;5025244;28;20033;-75
2021/04/19 16:41:06;;;;;;;16.20;10.57;;;15.10;99.90;;;;;;5023362;28;20036;-75
2021/04/19 16:43:31;;;;;;;17.10;11.70;;;15.70;99.90;;;;;;5026977;28;20022;-75
2021/04/19 16:45:57;;;;;;;16.83;10.48;;;14.80;99.90;;;;;;5026698;28;20017;-76
2021/04/19 16:48:24;;;;;;;14.73;10.85;;;14.60;99.90;;;;;;5026848;28;20112;-75
2021/04/19 16:50:50;;;;;;;13.05;9.88;;;14.20;99.90;;;;;;5026304;28;20013;-76
2021/04/19 16:53:15;;;;;;;13.60;9.95;;;14.50;99.90;;;;;;5026670;28;20570;-74
2021/04/19 16:55:41;;;;;;;13.38;9.00;;;14.40;99.90;;;;;;5026000;28;20030;-74
2021/04/19 16:58:07;;;;;;;15.52;9.27;;;14.30;99.90;;;;;;5026353;28;20037;-75
2021/04/19 17:00:32;;;;;;;14.90;9.88;;;15.40;99.90;;;;;;5026374;28;20082;-75
2021/04/19 17:03:01;;;;;;;18.02;12.68;;;14.30;99.90;;;;;;5021774;28;20034;-75
2021/04/19 17:05:27;;;;;;;21.63;12.82;;;14.20;99.90;;;;;;5025567;28;20029;-74
2021/04/19 17:07:52;;;;;;;27.88;17.35;;;14.30;99.90;;;;;;5027571;28;20068;-75
2021/04/19 17:10:18;;;;;;;15.80;11.30;;;13.90;99.90;;;;;;5025622;28;20788;-75
2021/04/19 17:12:44;;;;;;;23.17;15.52;;;13.80;99.90;;;;;;5027023;28;20119;-75
2021/04/19 17:15:12;;;;;;;23.35;15.20;;;13.60;99.90;;;;;;5027863;28;20502;-75
2021/04/19 17:17:39;;;;;;;16.05;11.27;;;13.50;99.90;;;;;;5027183;28;20098;-75
2021/04/19 17:20:08;;;;;;;14.45;10.77;;;14.20;99.90;;;;;;5026146;28;20096;-75
2021/04/19 17:22:34;;;;;;;17.02;12.02;;;13.10;99.90;;;;;;5027471;28;20029;-75
2021/04/19 17:25:00;;;;;;;18.50;13.73;;;13.00;99.90;;;;;;5026754;28;20116;-74
2021/04/19 17:27:25;;;;;;;17.83;13.80;;;12.70;99.90;;;;;;5026939;28;20103;-74
2021/04/19 17:29:51;;;;;;;21.40;14.10;;;13.90;99.90;;;;;;5026214;28;20092;-74
2021/04/19 17:32:17;;;;;;;20.50;14.32;;;13.60;99.90;;;;;;5026711;28;20025;-74
2021/04/19 17:34:45;;;;;;;19.35;12.23;;;13.00;99.90;;;;;;5025745;28;20029;-74
2021/04/19 17:37:11;;;;;;;21.00;12.90;;;12.20;99.90;;;;;;5027051;28;20045;-73
2021/04/19 17:39:37;;;;;;;18.88;11.63;;;12.60;99.90;;;;;;5026041;28;20030;-73
2021/04/19 17:42:03;;;;;;;21.60;14.45;;;12.10;99.90;;;;;;5026248;28;20053;-75
2021/04/19 17:44:28;;;;;;;18.48;11.93;;;12.00;99.90;;;;;;5027662;28;20077;-74
2021/04/19 17:46:54;;;;;;;20.35;13.13;;;12.30;99.90;;;;;;5029314;28;20371;-75
2021/04/19 17:49:20;;;;;;;19.50;12.98;;;12.00;99.90;;;;;;5030746;28;20033;-73
2021/04/19 17:51:47;;;;;;;20.15;12.60;;;11.90;99.90;;;;;;5028381;28;20072;-74
2021/04/19 17:54:13;;;;;;;21.70;13.77;;;11.90;99.90;;;;;;5030362;28;20117;-74
2021/04/19 17:56:39;;;;;;;19.90;14.10;;;12.10;99.90;;;;;;5030676;28;20046;-75
2021/04/19 17:59:04;;;;;;;17.60;12.40;;;12.40;99.90;;;;;;5030680;28;20061;-73
2021/04/19 18:01:30;;;;;;;18.33;12.88;;;11.80;99.90;;;;;;5031958;28;20034;-74
2021/04/19 18:03:56;;;;;;;20.77;13.20;;;11.80;99.90;;;;;;5030188;28;20037;-73
2021/04/19 18:06:21;;;;;;;17.92;12.63;;;11.70;99.90;;;;;;5029943;28;20053;-75
2021/04/19 18:08:47;;;;;;;20.75;12.88;;;11.60;99.90;;;;;;5034895;28;20535;-74
2021/04/19 18:11:13;;;;;;;20.75;13.35;;;12.30;99.90;;;;;;5044453;28;20033;-74
2021/04/19 18:13:38;;;;;;;18.45;13.35;;;11.40;99.90;;;;;;5029995;28;20030;-74
2021/04/19 18:16:04;;;;;;;17.75;13.05;;;11.90;99.90;;;;;;5029111;28;20025;-74
2021/04/19 18:18:30;;;;;;;19.65;13.35;;;11.30;99.90;;;;;;5029470;28;20038;-74
2021/04/19 18:20:56;;;;;;;20.40;12.55;;;11.00;99.90;;;;;;5029420;28;20026;-74
2021/04/19 18:23:21;;;;;;;18.75;12.85;;;11.30;99.90;;;;;;5029290;28;20037;-74
2021/04/19 18:25:47;;;;;;;21.35;14.90;;;11.20;99.90;;;;;;5030472;28;20029;-75
2021/04/19 18:28:15;;;;;;;20.17;12.85;;;11.10;99.90;;;;;;5029596;28;20120;-74
2021/04/19 18:30:47;;;;;;;16.13;12.60;;;11.00;99.90;;;;;;5028972;28;20026;-74
2021/04/19 18:33:13;;;;;;;17.65;12.65;;;12.30;99.90;;;;;;5029747;28;20490;-74
2021/04/19 18:35:39;;;;;;;19.83;12.88;;;11.70;99.90;;;;;;5030243;28;20450;-74
2021/04/19 18:38:06;;;;;;;17.92;12.48;;;10.90;99.90;;;;;;5029368;28;20504;-74
2021/04/19 18:40:32;;;;;;;20.17;13.35;;;10.60;99.90;;;;;;5029680;28;20029;-74
2021/04/19 18:43:01;;;;;;;20.20;13.38;;;10.70;99.90;;;;;;5028829;28;20038;-74
2021/04/19 18:45:31;;;;;;;19.73;12.50;;;10.60;99.90;;;;;;5030631;28;20067;-74
2021/04/19 18:47:57;;;;;;;17.23;12.38;;;10.50;99.90;;;;;;5029680;28;20025;-74
2021/04/19 18:50:23;;;;;;;15.70;12.15;;;10.10;99.90;;;;;;5033048;28;20113;-74
2021/04/19 18:52:49;;;;;;;18.80;13.00;;;9.90;99.90;;;;;;5022884;28;20108;-74
2021/04/19 18:55:15;;;;;;;18.75;12.65;;;10.60;99.90;;;;;;5013377;28;20025;-74
